createdAt,value
2022-08-22T00:00:21.656Z,2.55
2022-08-22T00:02:46.314Z,2.30
2022-08-22T00:05:26.218Z,2.75
2022-08-22T00:10:32.058Z,2.47
2022-08-22T00:15:44.303Z,3.15
2022-08-22T00:20:52.685Z,3.05
2022-08-22T00:26:26.458Z,2.65
2022-08-22T00:31:43.373Z,2.65
2022-08-22T00:37:17.318Z,2.17
2022-08-22T00:47:45.903Z,2.60
2022-08-22T00:52:55.379Z,2.45
2022-08-22T00:58:18.891Z,2.40
2022-08-22T01:03:39.541Z,3.00
2022-08-22T01:09:18.980Z,2.90
2022-08-22T01:14:35.692Z,2.53
2022-08-22T01:20:05.178Z,2.95
2022-08-22T01:25:40.743Z,2.28
2022-08-22T01:31:15.247Z,2.25
2022-08-22T01:36:40.414Z,2.90
2022-08-22T01:41:57.405Z,2.90
2022-08-22T01:47:39.260Z,2.55
2022-08-22T01:52:46.286Z,2.40
2022-08-22T01:58:01.888Z,2.53
2022-08-22T02:03:25.039Z,2.45
2022-08-22T02:08:49.801Z,2.38
2022-08-22T02:19:15.169Z,2.75
2022-08-22T02:24:29.230Z,2.63
2022-08-22T02:29:46.531Z,2.80
2022-08-22T02:35:03.655Z,2.78
2022-08-22T02:40:32.894Z,2.50
2022-08-22T02:45:46.490Z,3.15
2022-08-22T02:50:59.043Z,2.85
2022-08-22T02:56:14.700Z,2.58
2022-08-22T03:01:29.056Z,2.80
2022-08-22T03:06:40.251Z,2.45
2022-08-22T03:12:09.182Z,2.80
2022-08-22T03:17:38.409Z,2.70
2022-08-22T03:22:46.221Z,2.75
2022-08-22T03:27:56.450Z,2.92
2022-08-22T03:33:19.021Z,3.42
2022-08-22T03:38:28.522Z,2.80
2022-08-22T03:43:54.570Z,2.85
2022-08-22T03:49:46.846Z,2.83
2022-08-22T03:55:07.932Z,3.25
2022-08-22T04:00:27.851Z,3.05
2022-08-22T04:05:33.864Z,3.03
2022-08-22T04:11:03.597Z,2.92
2022-08-22T04:16:43.053Z,3.05
2022-08-22T04:22:20.040Z,3.05
2022-08-22T04:27:34.204Z,3.55
2022-08-22T04:32:47.408Z,3.58
2022-08-22T04:38:08.991Z,3.60
2022-08-22T04:43:23.397Z,3.90
2022-08-22T04:48:59.226Z,3.42
2022-08-22T04:54:42.056Z,3.67
2022-08-22T04:59:44.259Z,3.70
2022-08-22T05:04:49.688Z,3.80
2022-08-22T05:10:20.765Z,4.22
2022-08-22T05:15:33.024Z,4.05
2022-08-22T05:20:37.405Z,3.88
2022-08-22T05:25:42.839Z,4.10
2022-08-22T05:30:47.445Z,4.20
2022-08-22T05:36:08.091Z,4.15
2022-08-22T05:41:16.724Z,4.00
2022-08-22T05:46:41.720Z,4.50
2022-08-22T05:52:08.084Z,4.25
2022-08-22T05:57:39.528Z,4.97
2022-08-22T06:02:52.223Z,4.80
2022-08-22T06:08:02.849Z,4.13
2022-08-22T06:13:13.614Z,3.90
2022-08-22T06:18:20.977Z,4.53
2022-08-22T06:23:36.392Z,5.55
2022-08-22T06:28:46.712Z,4.50
2022-08-22T06:34:03.292Z,5.25
2022-08-22T06:39:10.582Z,5.60
2022-08-22T06:44:16.140Z,4.95
2022-08-22T06:49:18.812Z,4.97
2022-08-22T06:54:26.632Z,4.65
2022-08-22T06:59:31.773Z,5.20
2022-08-22T07:04:33.615Z,5.22
2022-08-22T07:09:37.761Z,5.55
2022-08-22T07:14:46.989Z,4.80
2022-08-22T07:19:57.066Z,4.57
2022-08-22T07:25:14.416Z,4.22
2022-08-22T07:30:27.504Z,4.40
2022-08-22T07:35:34.788Z,4.93
2022-08-22T07:40:39.551Z,5.53
2022-08-22T07:45:49.740Z,5.47
2022-08-22T07:50:58.763Z,4.90
2022-08-22T07:56:03.211Z,4.85
2022-08-22T08:06:10.152Z,3.87
2022-08-22T08:11:16.897Z,3.92
2022-08-22T08:16:24.885Z,4.28
2022-08-22T08:21:35.612Z,3.65
2022-08-22T08:27:03.547Z,3.50
2022-08-22T08:32:09.498Z,2.92
2022-08-22T08:37:29.673Z,3.13
2022-08-22T08:42:31.669Z,3.10
2022-08-22T08:47:51.764Z,3.10
2022-08-22T08:53:29.163Z,2.78
2022-08-22T08:58:40.536Z,3.17
2022-08-22T09:04:15.184Z,2.58
2022-08-22T09:09:36.221Z,2.58
2022-08-22T09:14:53.168Z,2.53
2022-08-22T09:20:22.015Z,3.38
2022-08-22T09:25:49.604Z,3.08
2022-08-22T09:37:23.602Z,2.22
2022-08-22T09:40:16.019Z,2.38
2022-08-22T09:43:20.987Z,2.30
2022-08-22T09:48:50.490Z,2.50
2022-08-22T09:54:19.277Z,2.95
2022-08-22T09:59:40.592Z,2.60
2022-08-22T10:04:51.191Z,2.33
2022-08-22T10:10:04.060Z,2.40
2022-08-22T10:15:16.103Z,2.10
2022-08-22T10:20:28.580Z,2.20
2022-08-22T10:25:44.830Z,2.30
2022-08-22T10:30:57.153Z,2.63
2022-08-22T10:36:13.360Z,2.38
2022-08-22T10:41:24.348Z,2.50
2022-08-22T10:46:42.194Z,2.80
2022-08-22T10:51:49.646Z,2.85
2022-08-22T10:57:07.918Z,2.33
2022-08-22T11:02:27.456Z,2.45
2022-08-22T11:07:29.400Z,2.22
2022-08-22T11:12:34.994Z,2.50
2022-08-22T11:18:14.627Z,2.20
2022-08-22T11:23:33.793Z,2.42
2022-08-22T11:29:11.271Z,2.60
2022-08-22T11:34:35.601Z,2.80
2022-08-22T11:40:19.240Z,2.20
2022-08-22T11:45:27.828Z,2.35
2022-08-22T11:51:25.044Z,2.45
2022-08-22T11:56:34.403Z,2.40
2022-08-22T12:01:42.670Z,2.33
2022-08-22T12:06:56.869Z,2.40
2022-08-22T12:12:04.869Z,2.60
2022-08-22T12:17:55.526Z,2.72
2022-08-22T12:23:04.578Z,2.88
2022-08-22T12:28:38.807Z,2.35
2022-08-22T12:33:52.202Z,2.20
2022-08-22T12:39:15.544Z,2.37
2022-08-22T12:44:29.487Z,2.50
2022-08-22T12:49:56.564Z,2.65
2022-08-22T12:55:16.800Z,2.40
2022-08-22T13:00:30.326Z,2.40
2022-08-22T13:05:34.225Z,2.33
2022-08-22T13:10:52.281Z,2.30
2022-08-22T13:16:01.185Z,2.45
2022-08-22T13:21:09.479Z,2.40
2022-08-22T13:26:33.672Z,2.60
2022-08-22T13:31:42.219Z,2.33
2022-08-22T13:36:51.910Z,2.30
2022-08-22T13:42:00.111Z,2.80
2022-08-22T13:47:14.320Z,2.35
2022-08-22T13:52:38.746Z,2.30
2022-08-22T13:57:51.931Z,2.78
2022-08-22T14:03:14.993Z,2.40
2022-08-22T14:08:40.945Z,2.28
2022-08-22T14:13:49.727Z,2.35
2022-08-22T14:24:25.411Z,2.38
2022-08-22T14:29:34.191Z,2.38
2022-08-22T14:34:45.469Z,2.90
2022-08-22T14:39:55.849Z,2.65
2022-08-22T14:45:13.328Z,2.92
2022-08-22T14:50:42.276Z,2.60
2022-08-22T14:55:54.823Z,2.50
2022-08-22T15:01:06.574Z,2.45
2022-08-22T15:06:29.042Z,2.40
2022-08-22T15:11:32.205Z,2.55
2022-08-22T15:16:36.753Z,2.78
2022-08-22T15:21:42.347Z,2.65
2022-08-22T15:26:55.653Z,2.80
2022-08-22T15:32:03.215Z,3.20
2022-08-22T15:37:20.761Z,3.38
2022-08-22T15:42:30.564Z,4.05
2022-08-22T15:47:39.569Z,3.65
2022-08-22T15:53:16.303Z,3.70
2022-08-22T15:58:23.908Z,3.65
2022-08-22T16:03:31.166Z,3.70
2022-08-22T16:08:36.284Z,3.35
2022-08-22T16:13:41.768Z,3.50
2022-08-22T16:18:43.577Z,3.38
2022-08-22T16:23:51.554Z,3.30
2022-08-22T16:28:59.468Z,3.85
2022-08-22T16:34:16.662Z,3.17
2022-08-22T16:39:21.416Z,3.50
2022-08-22T16:44:29.031Z,3.42
2022-08-22T16:49:34.113Z,3.00
2022-08-22T16:54:49.429Z,3.00
2022-08-22T17:00:01.791Z,2.45
2022-08-22T17:05:15.656Z,2.58
2022-08-22T17:10:23.371Z,2.67
2022-08-22T17:15:35.243Z,2.53
2022-08-22T17:21:05.120Z,2.58
2022-08-22T17:26:22.201Z,2.47
2022-08-22T17:31:53.922Z,3.03
2022-08-22T17:37:38.940Z,2.80
2022-08-22T17:42:40.646Z,2.30
2022-08-22T17:48:01.526Z,2.78
2022-08-22T17:53:10.899Z,2.90
2022-08-22T17:58:31.667Z,3.08
2022-08-22T18:03:49.195Z,3.42
2022-08-22T18:09:16.272Z,2.72
2022-08-22T18:14:49.630Z,2.78
2022-08-22T18:20:30.478Z,2.72
2022-08-22T18:25:41.798Z,2.58
2022-08-22T18:31:08.558Z,2.58
2022-08-22T18:36:22.625Z,2.65
2022-08-22T18:41:45.375Z,3.28
2022-08-22T18:46:52.912Z,3.05
2022-08-22T18:52:09.526Z,4.22
2022-08-22T18:57:42.558Z,3.00
2022-08-22T19:03:03.639Z,3.08
2022-08-22T19:08:08.688Z,2.88
2022-08-22T19:13:43.399Z,2.83
2022-08-22T19:23:55.631Z,2.90
2022-08-22T19:29:10.144Z,3.30
2022-08-22T19:34:30.756Z,3.15
2022-08-22T19:39:41.880Z,3.53
2022-08-22T19:44:45.737Z,3.40
2022-08-22T19:49:50.479Z,3.42
2022-08-22T19:55:10.277Z,3.97
2022-08-22T20:00:18.224Z,4.18
2022-08-22T20:05:35.053Z,4.05
2022-08-22T20:10:48.856Z,4.10
2022-08-22T20:16:05.245Z,4.27
2022-08-22T20:21:07.014Z,3.97
2022-08-22T20:26:09.011Z,3.83
2022-08-22T20:31:19.718Z,4.53
2022-08-22T20:36:28.334Z,3.80
2022-08-22T20:41:39.325Z,3.95
2022-08-22T20:46:43.595Z,3.80
2022-08-22T20:51:58.538Z,4.20
2022-08-22T20:57:03.498Z,4.80
2022-08-22T21:02:20.244Z,4.88
2022-08-22T21:07:25.663Z,4.35
2022-08-22T21:12:27.735Z,4.22
2022-08-22T21:17:39.096Z,6.85
2022-08-22T21:22:41.411Z,4.75
2022-08-22T21:27:47.696Z,4.38
2022-08-22T21:32:55.032Z,4.38
2022-08-22T21:37:59.572Z,4.20
2022-08-22T21:43:11.180Z,4.30
2022-08-22T21:48:40.629Z,4.57
2022-08-22T21:53:42.299Z,4.00
2022-08-22T21:58:46.188Z,4.10
2022-08-22T22:03:47.933Z,4.18
2022-08-22T22:08:49.871Z,4.38
2022-08-22T22:13:51.880Z,4.35
2022-08-22T22:18:54.224Z,4.07
2022-08-22T22:23:58.416Z,3.95
2022-08-22T22:29:02.088Z,4.20
2022-08-22T22:34:03.788Z,3.97
2022-08-22T22:39:08.179Z,4.15
2022-08-22T22:49:11.567Z,4.05
2022-08-22T22:54:13.336Z,4.45
2022-08-22T22:59:18.280Z,4.00
2022-08-22T23:04:26.385Z,4.00
2022-08-22T23:09:38.219Z,3.78
2022-08-22T23:14:43.125Z,3.95
2022-08-22T23:19:46.225Z,3.95
2022-08-22T23:24:50.438Z,3.60
2022-08-22T23:29:52.409Z,4.13
2022-08-22T23:34:54.285Z,4.00
2022-08-22T23:39:56.086Z,3.88
2022-08-22T23:44:58.158Z,3.70
2022-08-22T23:50:05.734Z,3.45
2022-08-22T23:55:09.131Z,3.90
